Time;durP1;ratioP1;P1;durP2;ratioP2;P2;SDS_P1;SDS_P2;PMS_P1;PMS_P2;Temp;Humidity;BMP_temperature;BMP_pressure;BME280_temperature;BME280_humidity;BME280_pressure;Samples;Min_cycle;Max_cycle;Signal;HPM_P1;HPM_P2
2023/10/02 00:40:10;;;;;;;11.10;4.97;;;13.10;98.00;;;;;;5012861;28;20510;-90
2023/10/02 00:42:38;;;;;;;14.03;5.30;;;13.10;98.00;;;;;;5011959;28;20495;-90
2023/10/02 00:45:08;;;;;;;13.03;4.90;;;13.20;98.00;;;;;;5012820;28;20462;-90
2023/10/02 00:47:45;;;;;;;13.67;5.60;;;13.20;98.00;;;;;;5012670;28;20490;-90
2023/10/02 00:50:18;;;;;;;11.93;4.80;;;13.20;98.00;;;;;;5012688;28;20467;-90
2023/10/02 00:52:51;;;;;;;12.67;4.90;;;12.90;98.00;;;;;;5012218;28;20451;-89
2023/10/02 00:55:20;;;;;;;13.57;4.27;;;12.90;98.00;;;;;;5012977;28;20467;-89
2023/10/02 00:57:51;;;;;;;8.37;4.10;;;12.90;98.00;;;;;;5012689;28;20897;-90
2023/10/02 01:00:30;;;;;;;10.50;4.40;;;12.90;98.00;;;;;;5012899;28;20493;-90
2023/10/02 01:02:59;;;;;;;11.90;5.07;;;12.90;98.00;;;;;;5012036;28;20490;-90
2023/10/02 01:05:31;;;;;;;16.00;5.17;;;12.90;98.00;;;;;;5012586;28;20558;-90
2023/10/02 01:07:59;;;;;;;10.17;4.40;;;12.90;98.00;;;;;;5010330;28;20550;-90
2023/10/02 01:10:30;;;;;;;11.30;4.70;;;12.80;98.00;;;;;;5012066;28;20459;-90
2023/10/02 01:13:01;;;;;;;10.87;4.47;;;12.60;98.00;;;;;;5011876;28;20816;-90
2023/10/02 01:15:29;;;;;;;7.60;4.10;;;12.70;98.00;;;;;;5012320;28;20455;-90
2023/10/02 01:18:21;;;;;;;11.90;4.30;;;12.80;98.00;;;;;;5011991;28;20991;-90
2023/10/02 01:20:48;;;;;;;8.70;4.33;;;12.90;98.00;;;;;;5012128;28;20549;-90
2023/10/02 01:23:18;;;;;;;12.50;4.90;;;12.90;98.00;;;;;;5011744;28;20899;-90
2023/10/02 01:25:49;;;;;;;7.87;4.40;;;12.70;98.00;;;;;;5012816;28;20758;-90
2023/10/02 01:28:20;;;;;;;12.10;4.10;;;12.70;98.00;;;;;;5014211;28;20480;-90
2023/10/02 01:30:50;;;;;;;12.90;4.60;;;12.60;98.00;;;;;;5013804;28;20483;-90
2023/10/02 01:33:21;;;;;;;11.20;4.23;;;12.60;98.00;;;;;;5016391;28;20546;-90
2023/10/02 01:35:50;;;;;;;11.10;4.27;;;12.50;98.00;;;;;;5016379;28;21009;-90
2023/10/02 01:38:29;;;;;;;9.43;4.10;;;12.40;98.00;;;;;;5016527;28;20509;-89
2023/10/02 01:41:04;;;;;;;12.23;4.10;;;12.30;98.00;;;;;;5016000;28;20498;-90
2023/10/02 01:43:35;;;;;;;14.37;5.00;;;12.30;98.00;;;;;;5016382;28;20478;-89
2023/10/02 01:46:05;;;;;;;13.10;4.97;;;12.30;98.00;;;;;;5016252;28;20801;-90
2023/10/02 01:48:41;;;;;;;14.80;5.07;;;12.30;98.00;;;;;;5015971;28;20486;-90
2023/10/02 01:51:25;;;;;;;11.30;5.13;;;12.50;98.00;;;;;;5015663;28;20470;-90
2023/10/02 01:53:55;;;;;;;13.53;5.03;;;12.60;98.00;;;;;;5016067;28;20475;-90
2023/10/02 01:56:24;;;;;;;16.70;5.00;;;12.50;98.00;;;;;;5015754;28;20463;-90
2023/10/02 01:58:52;;;;;;;9.60;4.03;;;12.40;98.00;;;;;;5015981;28;20482;-90
2023/10/02 02:01:21;;;;;;;11.83;4.83;;;12.40;98.00;;;;;;5015578;28;20460;-90
2023/10/02 02:03:49;;;;;;;11.27;4.80;;;12.40;98.00;;;;;;5015770;28;20483;-90
2023/10/02 02:06:20;;;;;;;16.53;5.20;;;12.30;98.00;;;;;;5016029;28;20470;-90
2023/10/02 02:08:58;;;;;;;11.40;4.93;;;12.20;98.00;;;;;;5015772;28;20478;-90
2023/10/02 02:11:29;;;;;;;12.63;4.43;;;12.30;98.00;;;;;;5014989;28;20883;-89
2023/10/02 02:13:59;;;;;;;14.53;5.60;;;12.20;98.00;;;;;;5015366;28;20475;-89
2023/10/02 02:16:33;;;;;;;12.70;4.20;;;12.20;98.00;;;;;;5015296;28;20460;-90
2023/10/02 02:19:05;;;;;;;10.60;4.60;;;12.30;98.00;;;;;;5015461;28;20483;-89
2023/10/02 02:21:33;;;;;;;9.50;4.10;;;12.30;98.00;;;;;;5014907;28;20812;-89
2023/10/02 02:24:08;;;;;;;10.97;4.43;;;12.40;98.00;;;;;;5015104;28;20486;-90
2023/10/02 02:26:37;;;;;;;9.30;4.07;;;12.30;98.00;;;;;;5015474;28;20554;-89
2023/10/02 02:29:05;;;;;;;10.50;4.00;;;12.30;98.00;;;;;;5015134;28;20486;-90
2023/10/02 02:31:33;;;;;;;11.60;4.57;;;12.40;98.00;;;;;;5015059;28;20800;-90
2023/10/02 02:34:14;;;;;;;12.83;4.20;;;12.40;98.00;;;;;;5015246;28;20840;-89
2023/10/02 02:36:42;;;;;;;10.40;4.40;;;12.40;98.00;;;;;;5014865;28;21035;-90
2023/10/02 02:39:17;;;;;;;8.00;4.13;;;12.20;98.00;;;;;;5014743;28;20475;-90
2023/10/02 02:41:47;;;;;;;9.80;4.27;;;12.10;98.00;;;;;;5013970;28;20473;-90
2023/10/02 02:44:39;;;;;;;11.70;5.10;;;11.90;98.00;;;;;;5015003;28;20533;-89
2023/10/02 02:47:07;;;;;;;11.73;4.73;;;11.80;98.00;;;;;;5015252;28;20458;-89
2023/10/02 02:49:48;;;;;;;10.77;4.03;;;11.80;98.00;;;;;;5014447;28;20613;-90
2023/10/02 02:52:17;;;;;;;8.97;4.33;;;11.90;98.00;;;;;;5015082;28;20495;-89
2023/10/02 02:54:47;;;;;;;11.27;4.93;;;11.80;98.00;;;;;;5014777;28;20466;-90
2023/10/02 02:57:18;;;;;;;10.70;4.30;;;11.70;98.00;;;;;;5014772;28;20487;-90
2023/10/02 02:59:46;;;;;;;9.37;3.70;;;11.60;98.00;;;;;;5015038;28;20468;-90
2023/10/02 03:02:21;;;;;;;9.90;4.00;;;11.60;98.00;;;;;;5014610;28;20882;-89
2023/10/02 03:04:51;;;;;;;10.47;3.93;;;11.60;98.00;;;;;;5014460;28;20848;-89
2023/10/02 03:07:29;;;;;;;10.53;4.23;;;11.50;98.00;;;;;;5014597;28;21002;-90
2023/10/02 03:09:59;;;;;;;11.23;4.00;;;11.50;98.00;;;;;;5014566;28;20862;-90
2023/10/02 03:12:28;;;;;;;12.97;4.13;;;11.50;98.00;;;;;;5014637;28;20950;-90
2023/10/02 03:14:56;;;;;;;13.20;5.60;;;11.40;98.00;;;;;;5014229;28;20473;-90
2023/10/02 03:17:31;;;;;;;13.30;4.10;;;11.40;98.00;;;;;;5014710;28;20560;-90
2023/10/02 03:20:00;;;;;;;11.90;4.23;;;11.40;98.00;;;;;;5014333;28;20532;-89
2023/10/02 03:22:27;;;;;;;10.40;4.90;;;11.50;98.00;;;;;;5013974;28;20458;-89
2023/10/02 03:25:24;;;;;;;12.70;4.50;;;11.50;98.00;;;;;;5014271;28;20583;-90
2023/10/02 03:27:48;;;;;;;11.70;4.80;;;11.50;98.00;;;;;;5013863;28;20565;-89
2023/10/02 03:30:35;;;;;;;10.30;4.90;;;11.50;98.00;;;;;;5014297;28;20493;-89
2023/10/02 03:33:03;;;;;;;15.30;4.80;;;11.60;98.00;;;;;;5013814;28;20454;-90
2023/10/02 03:35:38;;;;;;;13.43;5.00;;;11.50;98.00;;;;;;5014025;28;20487;-90
2023/10/02 03:38:05;;;;;;;9.83;4.33;;;11.50;98.00;;;;;;5014153;28;20993;-90
2023/10/02 03:40:32;;;;;;;13.67;5.03;;;11.60;98.00;;;;;;5013913;28;20466;-90
2023/10/02 03:43:18;;;;;;;8.70;3.87;;;11.70;98.00;;;;;;5013627;28;20482;-90
2023/10/02 03:45:50;;;;;;;11.03;4.80;;;11.60;98.00;;;;;;5014070;28;20468;-89
2023/10/02 03:48:18;;;;;;;13.03;4.80;;;11.70;98.00;;;;;;5014080;28;20480;-90
2023/10/02 03:50:45;;;;;;;11.53;4.97;;;11.80;98.00;;;;;;5013615;28;20469;-90
2023/10/02 03:53:28;;;;;;;13.23;4.37;;;11.60;98.00;;;;;;5012988;28;20856;-89
2023/10/02 03:55:59;;;;;;;11.13;4.30;;;11.70;98.00;;;;;;5013823;28;20471;-90
2023/10/02 03:58:38;;;;;;;10.40;3.80;;;11.60;98.00;;;;;;5014412;28;20510;-90
2023/10/02 04:01:08;;;;;;;12.13;4.50;;;11.60;98.00;;;;;;5013519;28;20521;-90
2023/10/02 04:03:52;;;;;;;10.10;4.50;;;11.70;98.00;;;;;;5013381;28;20483;-90
2023/10/02 04:06:33;;;;;;;10.93;4.60;;;11.60;98.00;;;;;;5013622;28;20462;-90
2023/10/02 04:09:09;;;;;;;11.73;3.90;;;11.50;98.00;;;;;;5013769;28;20482;-90
2023/10/02 04:11:38;;;;;;;8.67;4.07;;;11.40;98.00;;;;;;5012764;28;20466;-90
2023/10/02 04:14:17;;;;;;;11.47;4.03;;;11.40;98.00;;;;;;5013566;28;20461;-90
2023/10/02 04:16:48;;;;;;;11.63;4.60;;;11.30;98.00;;;;;;5013592;28;21007;-89
2023/10/02 04:19:15;;;;;;;9.83;4.30;;;11.30;98.00;;;;;;5013773;28;20476;-89
2023/10/02 04:21:45;;;;;;;11.07;4.30;;;11.30;98.00;;;;;;5013084;28;20465;-89
2023/10/02 04:24:13;;;;;;;10.23;4.20;;;11.30;98.00;;;;;;5013234;28;20487;-90
2023/10/02 04:26:41;;;;;;;9.67;4.20;;;11.40;98.00;;;;;;5013199;28;20467;-89
2023/10/02 04:29:26;;;;;;;11.63;4.13;;;11.40;98.00;;;;;;5013166;28;20481;-89
2023/10/02 04:32:11;;;;;;;13.97;4.60;;;11.30;98.00;;;;;;5013311;28;20491;-90
2023/10/02 04:34:38;;;;;;;9.43;4.50;;;11.20;98.00;;;;;;5013357;28;20533;-89
2023/10/02 04:37:19;;;;;;;10.80;5.10;;;11.30;98.00;;;;;;5013254;28;20887;-89
2023/10/02 04:40:13;;;;;;;10.33;3.97;;;11.40;98.00;;;;;;5012943;28;20560;-89
2023/10/02 04:45:26;;;;;;;9.63;4.20;;;11.50;98.00;;;;;;5012955;28;21048;-89
2023/10/02 04:47:54;;;;;;;8.23;3.80;;;11.50;98.00;;;;;;5014040;28;20981;-89
2023/10/02 04:50:39;;;;;;;11.47;4.43;;;11.70;98.00;;;;;;5013331;28;20459;-90
2023/10/02 04:53:19;;;;;;;10.43;4.53;;;11.90;98.00;;;;;;5012755;28;20504;-90
2023/10/02 04:55:48;;;;;;;15.27;4.50;;;12.00;98.00;;;;;;5013751;28;20451;-89
2023/10/02 04:58:19;;;;;;;10.50;4.23;;;11.90;98.00;;;;;;5013818;28;20538;-89
2023/10/02 05:03:36;;;;;;;9.03;3.83;;;11.40;98.00;;;;;;5006895;28;20528;-89
2023/10/02 05:06:03;;;;;;;14.87;4.60;;;11.40;98.00;;;;;;5012984;28;20489;-90
2023/10/02 05:08:37;;;;;;;8.63;3.73;;;11.30;98.00;;;;;;5013171;28;20559;-90
2023/10/02 05:11:06;;;;;;;11.60;4.43;;;11.40;98.00;;;;;;5012913;28;20457;-89
2023/10/02 05:13:53;;;;;;;12.27;4.40;;;11.30;98.00;;;;;;5012806;28;20451;-89
2023/10/02 05:16:29;;;;;;;14.17;4.70;;;11.30;98.00;;;;;;5012864;28;20882;-89
2023/10/02 05:18:57;;;;;;;10.10;4.00;;;11.20;98.00;;;;;;5012777;28;21006;-90
2023/10/02 05:21:35;;;;;;;9.93;4.23;;;11.20;98.00;;;;;;5012470;28;20668;-89
2023/10/02 05:24:04;;;;;;;8.97;4.30;;;11.20;98.00;;;;;;5012544;28;20570;-90
2023/10/02 05:26:33;;;;;;;10.30;4.60;;;11.30;98.00;;;;;;5012833;28;20473;-89
2023/10/02 05:29:00;;;;;;;10.17;4.70;;;11.30;98.00;;;;;;5012406;28;20487;-89
2023/10/02 05:31:29;;;;;;;10.97;4.50;;;11.30;98.00;;;;;;5012397;28;20471;-90
2023/10/02 05:33:57;;;;;;;10.87;4.67;;;11.30;98.00;;;;;;5012488;28;20466;-89
2023/10/02 05:36:28;;;;;;;18.00;4.87;;;11.50;98.00;;;;;;5012840;28;20493;-89
2023/10/02 05:39:27;;;;;;;9.00;3.90;;;11.60;98.00;;;;;;5012542;28;21077;-90
2023/10/02 05:41:56;;;;;;;22.27;4.90;;;11.60;98.00;;;;;;5012621;28;20475;-90
2023/10/02 05:44:25;;;;;;;14.73;4.20;;;11.60;98.00;;;;;;5013511;28;20489;-90
2023/10/02 05:46:56;;;;;;;15.10;4.70;;;11.40;98.00;;;;;;5012407;28;20827;-88
2023/10/02 05:49:24;;;;;;;16.00;4.40;;;11.40;98.00;;;;;;5012511;28;20455;-89
2023/10/02 05:51:55;;;;;;;12.80;4.20;;;11.30;98.00;;;;;;5011898;28;20485;-89
2023/10/02 05:54:26;;;;;;;16.23;5.00;;;11.40;98.00;;;;;;5012459;28;20458;-89
2023/10/02 05:57:08;;;;;;;13.60;5.00;;;11.70;98.00;;;;;;5012703;28;20460;-90
2023/10/02 05:59:43;;;;;;;11.97;4.20;;;11.80;98.00;;;;;;5011927;28;20517;-89
2023/10/02 06:02:13;;;;;;;12.33;3.90;;;12.00;98.00;;;;;;5011107;28;20460;-89
2023/10/02 06:04:43;;;;;;;12.17;4.30;;;12.00;98.00;;;;;;5011313;28;20490;-89
2023/10/02 06:07:11;;;;;;;11.63;4.47;;;11.80;98.00;;;;;;5011470;28;20513;-88
2023/10/02 06:09:44;;;;;;;11.67;4.80;;;11.60;98.00;;;;;;5010922;28;20466;-89
2023/10/02 06:12:12;;;;;;;14.60;4.60;;;11.50;98.00;;;;;;5011149;28;20493;-89
2023/10/02 06:14:42;;;;;;;9.13;4.80;;;11.40;98.00;;;;;;5011185;28;20549;-89
2023/10/02 06:17:12;;;;;;;18.47;5.67;;;11.40;98.00;;;;;;5013918;28;20900;-89
2023/10/02 06:19:45;;;;;;;18.97;5.17;;;11.30;98.00;;;;;;5014732;28;20547;-89
2023/10/02 06:22:14;;;;;;;8.13;3.97;;;11.30;98.00;;;;;;5014240;28;20508;-89
2023/10/02 06:24:42;;;;;;;18.63;4.43;;;11.30;98.00;;;;;;5014096;28;20524;-89
2023/10/02 06:27:14;;;;;;;12.07;4.50;;;11.50;98.00;;;;;;5014554;28;20605;-89
2023/10/02 06:29:44;;;;;;;10.70;4.93;;;11.70;98.00;;;;;;5014544;28;20468;-89
2023/10/02 06:32:14;;;;;;;12.40;4.40;;;11.80;98.00;;;;;;5013782;28;20462;-89
2023/10/02 06:34:45;;;;;;;18.30;4.70;;;12.00;98.00;;;;;;5014264;28;20947;-89
2023/10/02 06:37:16;;;;;;;9.67;3.93;;;12.10;98.00;;;;;;5014157;28;20983;-88
2023/10/02 06:39:45;;;;;;;12.80;4.80;;;12.10;98.00;;;;;;5014042;28;20467;-89
2023/10/02 06:42:15;;;;;;;13.30;4.60;;;11.90;98.00;;;;;;5013712;28;20471;-89
2023/10/02 06:44:52;;;;;;;9.77;4.60;;;11.90;98.00;;;;;;5013855;28;21071;-89
2023/10/02 06:47:21;;;;;;;14.80;4.60;;;11.90;98.00;;;;;;5014655;28;20484;-90
2023/10/02 06:49:52;;;;;;;21.53;5.33;;;12.00;98.00;;;;;;5014025;28;20513;-89
2023/10/02 06:52:20;;;;;;;13.97;5.30;;;12.10;98.00;;;;;;5013952;28;20498;-89
2023/10/02 06:54:49;;;;;;;13.20;6.10;;;12.10;98.00;;;;;;5013661;28;20459;-89
2023/10/02 06:57:18;;;;;;;12.07;5.57;;;12.30;98.00;;;;;;5014245;28;20573;-89
2023/10/02 06:59:53;;;;;;;15.20;5.23;;;12.30;98.00;;;;;;5013801;28;20481;-89
2023/10/02 07:02:21;;;;;;;14.93;6.13;;;12.30;98.00;;;;;;5005716;28;20467;-90
2023/10/02 07:04:52;;;;;;;15.67;5.80;;;12.50;98.00;;;;;;5013141;28;20517;-89
2023/10/02 07:07:24;;;;;;;10.93;4.90;;;12.40;98.00;;;;;;5013998;28;20480;-89
2023/10/02 07:09:52;;;;;;;8.20;4.67;;;12.40;98.00;;;;;;5013336;28;20486;-89
2023/10/02 07:12:20;;;;;;;15.67;5.10;;;12.50;98.00;;;;;;5013132;28;20883;-89
2023/10/02 07:14:48;;;;;;;11.60;5.00;;;12.50;98.00;;;;;;5013107;28;20486;-89
2023/10/02 07:17:20;;;;;;;12.20;4.73;;;12.60;98.00;;;;;;5013526;28;20495;-89
2023/10/02 07:19:51;;;;;;;10.37;4.70;;;12.70;98.00;;;;;;5012749;28;20951;-89
2023/10/02 07:22:25;;;;;;;14.53;5.57;;;12.80;98.00;;;;;;5012432;28;20460;-89
2023/10/02 07:24:55;;;;;;;8.33;4.30;;;12.90;98.00;;;;;;5012889;28;20482;-89
2023/10/02 07:27:27;;;;;;;15.63;6.00;;;13.00;98.00;;;;;;5013218;28;20483;-89
2023/10/02 07:29:55;;;;;;;8.13;4.20;;;13.10;98.00;;;;;;5012850;28;20506;-89
2023/10/02 07:32:24;;;;;;;13.60;5.27;;;13.30;98.00;;;;;;5012756;28;20462;-89
2023/10/02 07:34:53;;;;;;;10.10;4.93;;;13.40;98.00;;;;;;5013079;28;20462;-89
2023/10/02 07:37:22;;;;;;;11.80;5.53;;;13.60;98.00;;;;;;5013012;28;20487;-90
2023/10/02 07:40:00;;;;;;;12.80;5.67;;;13.70;98.00;;;;;;5012599;28;20880;-89
2023/10/02 07:42:29;;;;;;;11.40;5.07;;;13.80;98.00;;;;;;5012266;28;20475;-89
2023/10/02 07:45:12;;;;;;;16.53;5.70;;;13.90;98.00;;;;;;5012316;28;21030;-89
2023/10/02 07:48:08;;;;;;;13.10;4.63;;;14.00;98.00;;;;;;5012514;28;20537;-89
2023/10/02 07:50:38;;;;;;;10.43;5.40;;;14.10;98.00;;;;;;5012820;28;20966;-89
2023/10/02 07:53:06;;;;;;;14.13;6.00;;;14.30;98.00;;;;;;5012120;28;20452;-88
2023/10/02 07:55:39;;;;;;;10.80;5.20;;;14.50;98.00;;;;;;5012709;28;20874;-89
2023/10/02 07:58:08;;;;;;;12.40;5.20;;;14.70;98.00;;;;;;5012747;28;20480;-89
2023/10/02 08:00:40;;;;;;;13.30;4.80;;;14.80;98.00;;;;;;5012488;28;20502;-89
2023/10/02 08:03:31;;;;;;;13.60;4.67;;;15.00;98.00;;;;;;5012187;28;20463;-89
2023/10/02 08:06:20;;;;;;;15.57;5.13;;;15.20;98.00;;;;;;5012118;28;20768;-89
2023/10/02 08:08:54;;;;;;;13.57;5.03;;;15.30;98.00;;;;;;5012923;28;20472;-89
2023/10/02 08:11:21;;;;;;;14.63;5.47;;;15.40;98.00;;;;;;5011851;28;20947;-89
2023/10/02 08:13:49;;;;;;;12.30;4.97;;;15.60;98.00;;;;;;5012537;28;20482;-89
2023/10/02 08:16:20;;;;;;;8.73;4.60;;;15.70;98.00;;;;;;5012450;28;20544;-89
2023/10/02 08:19:05;;;;;;;13.60;5.33;;;15.80;98.00;;;;;;5012235;28;20486;-89
2023/10/02 08:21:45;;;;;;;13.60;5.57;;;15.90;98.00;;;;;;5005681;28;20487;-89
2023/10/02 08:24:13;;;;;;;18.43;4.63;;;16.00;98.00;;;;;;5012586;28;20455;-89
2023/10/02 08:26:43;;;;;;;12.03;5.20;;;16.10;98.00;;;;;;5012474;28;20491;-89
2023/10/02 08:29:13;;;;;;;14.40;5.50;;;16.30;98.00;;;;;;5012592;28;20472;-89
2023/10/02 08:31:44;;;;;;;10.00;4.47;;;16.40;98.00;;;;;;5011767;28;20517;-89
2023/10/02 08:34:19;;;;;;;10.00;5.03;;;16.60;98.00;;;;;;5012691;28;20869;-89
2023/10/02 08:36:54;;;;;;;12.73;5.40;;;16.70;98.00;;;;;;5015424;28;20838;-89
2023/10/02 08:39:22;;;;;;;14.10;5.30;;;16.90;98.00;;;;;;5013667;28;20463;-89
2023/10/02 08:41:51;;;;;;;16.13;6.13;;;17.10;98.00;;;;;;5013164;28;20843;-89
2023/10/02 08:44:20;;;;;;;10.93;5.10;;;17.30;98.00;;;;;;5015336;28;20517;-89
2023/10/02 08:46:48;;;;;;;15.83;5.20;;;17.40;98.00;;;;;;5018308;28;20459;-89
2023/10/02 08:49:16;;;;;;;8.97;4.80;;;17.60;98.00;;;;;;5013828;28;20537;-89
2023/10/02 08:51:49;;;;;;;14.77;5.13;;;17.80;98.00;;;;;;5012106;28;20465;-89
2023/10/02 08:54:18;;;;;;;13.37;5.50;;;17.90;98.00;;;;;;5011740;28;20861;-89
2023/10/02 08:56:48;;;;;;;12.10;4.83;;;18.20;98.00;;;;;;5011259;28;20533;-89
2023/10/02 08:59:26;;;;;;;11.60;5.20;;;18.40;98.00;;;;;;5011358;28;20571;-89
2023/10/02 09:02:08;;;;;;;12.90;5.27;;;18.60;98.00;;;;;;5011210;28;20828;-90
2023/10/02 09:04:35;;;;;;;14.00;5.30;;;18.80;98.00;;;;;;5005641;28;20562;-90
2023/10/02 09:07:14;;;;;;;15.00;5.60;;;19.00;98.00;;;;;;5011324;28;20460;-89
2023/10/02 09:09:54;;;;;;;13.93;5.20;;;19.20;98.00;;;;;;5011370;28;20992;-90
2023/10/02 09:12:21;;;;;;;12.83;4.30;;;19.40;98.00;;;;;;5011172;28;20470;-89
2023/10/02 09:14:51;;;;;;;9.93;4.80;;;19.60;98.00;;;;;;5011856;28;20458;-89
2023/10/02 09:17:19;;;;;;;11.70;5.07;;;19.80;98.00;;;;;;5011754;28;20491;-89
2023/10/02 09:19:54;;;;;;;16.13;4.97;;;20.00;98.00;;;;;;5011268;28;20510;-89
2023/10/02 09:22:23;;;;;;;11.00;4.80;;;20.10;98.00;;;;;;5011081;28;20459;-90
2023/10/02 09:25:09;;;;;;;9.00;4.43;;;20.20;98.00;;;;;;5011214;28;20479;-90
2023/10/02 09:27:41;;;;;;;11.60;4.90;;;20.40;98.00;;;;;;5011190;28;21050;-89
2023/10/02 09:30:18;;;;;;;12.03;4.93;;;20.60;98.00;;;;;;5011220;28;20554;-89
2023/10/02 09:32:49;;;;;;;21.20;6.00;;;20.80;98.00;;;;;;5012126;28;20470;-89
2023/10/02 09:35:29;;;;;;;12.70;4.90;;;21.00;98.00;;;;;;5012479;28;20466;-89
2023/10/02 09:38:02;;;;;;;14.13;5.43;;;21.30;98.00;;;;;;5012147;28;20847;-89
2023/10/02 09:40:53;;;;;;;12.00;4.73;;;21.40;98.00;;;;;;5016247;28;20491;-89
2023/10/02 09:43:23;;;;;;;12.00;5.20;;;21.60;98.00;;;;;;5014469;28;20984;-89
2023/10/02 09:45:53;;;;;;;15.77;5.80;;;21.90;98.00;;;;;;5013644;28;20483;-90
2023/10/02 09:49:01;;;;;;;11.73;5.13;;;22.00;98.00;;;;;;5012510;28;20490;-89
2023/10/02 09:52:09;;;;;;;10.13;5.17;;;22.20;98.00;;;;;;5006474;28;20911;-90
2023/10/02 09:54:40;;;;;;;8.73;4.30;;;22.40;98.00;;;;;;5014823;28;20546;-89
2023/10/02 09:57:16;;;;;;;13.03;5.27;;;22.60;98.00;;;;;;5015387;28;20525;-89
2023/10/02 09:59:51;;;;;;;13.23;5.30;;;22.90;98.00;;;;;;5014831;28;20480;-90
2023/10/02 10:10:48;;;;;;;13.13;5.73;;;23.80;98.00;;;;;;5015204;28;20486;-90
2023/10/02 10:13:33;;;;;;;12.03;5.40;;;24.00;98.00;;;;;;5015041;28;20523;-90
2023/10/02 10:16:38;;;;;;;9.77;5.30;;;24.20;98.00;;;;;;5017626;28;20459;-90
2023/10/02 10:19:33;;;;;;;12.97;5.33;;;24.40;98.00;;;;;;5016401;28;20475;-90
2023/10/02 10:22:04;;;;;;;13.27;5.97;;;24.50;98.00;;;;;;5015858;28;20451;-90
2023/10/02 10:24:58;;;;;;;13.73;5.20;;;24.70;98.00;;;;;;5016439;28;20491;-90
2023/10/02 10:27:59;;;;;;;12.57;5.67;;;24.90;98.00;;;;;;5015392;28;20507;-91
2023/10/02 10:30:45;;;;;;;11.17;4.90;;;25.10;98.00;;;;;;5015561;28;20982;-91
2023/10/02 10:33:35;;;;;;;9.43;4.40;;;25.40;98.00;;;;;;5018699;28;20463;-90
2023/10/02 10:36:13;;;;;;;11.33;5.33;;;25.60;98.00;;;;;;5018271;28;20553;-92
2023/10/02 10:38:42;;;;;;;12.80;5.30;;;25.70;98.00;;;;;;5014868;28;20910;-88
2023/10/02 10:41:14;;;;;;;11.53;5.40;;;26.00;98.00;;;;;;5016414;28;20486;-89
2023/10/02 10:43:55;;;;;;;11.80;4.63;;;26.20;98.00;;;;;;5018921;28;21009;-88
2023/10/02 10:46:27;;;;;;;11.53;5.20;;;26.40;98.00;;;;;;5018680;28;20518;-89
2023/10/02 10:49:07;;;;;;;10.27;4.90;;;26.70;98.00;;;;;;5015897;28;20479;-89
2023/10/02 10:51:36;;;;;;;15.67;5.60;;;27.00;98.00;;;;;;5014921;28;20989;-89
2023/10/02 10:54:12;;;;;;;10.70;4.93;;;27.10;96.40;;;;;;5016115;28;20554;-89
2023/10/02 10:56:44;;;;;;;16.27;5.50;;;27.30;97.10;;;;;;5019023;28;20459;-89
2023/10/02 10:59:12;;;;;;;11.50;5.30;;;27.50;96.20;;;;;;5018480;28;20534;-90
2023/10/02 11:02:09;;;;;;;12.57;5.63;;;27.70;95.20;;;;;;5016721;28;20829;-90
2023/10/02 11:04:39;;;;;;;12.20;5.33;;;28.00;95.30;;;;;;5016457;28;20501;-89
2023/10/02 11:07:19;;;;;;;11.70;5.47;;;28.30;95.20;;;;;;5014655;28;20517;-89
2023/10/02 11:10:14;;;;;;;11.33;4.70;;;28.60;93.30;;;;;;5014048;28;20506;-89
2023/10/02 11:12:39;;;;;;;14.70;5.40;;;28.80;92.30;;;;;;5015514;28;20538;-90
2023/10/02 11:15:29;;;;;;;13.90;5.73;;;29.10;89.50;;;;;;5015925;28;20862;-90
2023/10/02 11:18:23;;;;;;;15.30;6.03;;;29.30;90.60;;;;;;5016465;28;20480;-89
2023/10/02 11:20:54;;;;;;;11.70;5.43;;;29.40;87.40;;;;;;5016159;28;20460;-90
2023/10/02 11:23:37;;;;;;;15.60;5.80;;;29.50;86.50;;;;;;5014545;28;20959;-90
2023/10/02 11:26:11;;;;;;;16.60;5.73;;;29.70;83.20;;;;;;5015228;28;21081;-90
2023/10/02 11:28:38;;;;;;;14.10;5.90;;;29.80;83.60;;;;;;5014301;28;20483;-89
2023/10/02 11:31:32;;;;;;;13.67;5.73;;;30.00;83.50;;;;;;5015018;28;20490;-90
2023/10/02 11:34:05;;;;;;;15.10;6.17;;;30.20;82.80;;;;;;5016718;28;20492;-89
2023/10/02 11:36:38;;;;;;;17.70;6.80;;;30.50;79.40;;;;;;5021166;28;20466;-89
2023/10/02 11:39:09;;;;;;;15.40;6.00;;;30.50;79.10;;;;;;5015985;28;20903;-90
2023/10/02 11:41:37;;;;;;;19.73;7.47;;;30.80;77.10;;;;;;5014314;28;20471;-90
2023/10/02 11:44:06;;;;;;;15.10;6.40;;;31.00;76.90;;;;;;5015373;28;20456;-89
2023/10/02 11:46:33;;;;;;;18.33;7.57;;;31.20;74.80;;;;;;5015058;28;20490;-90
2023/10/02 11:49:04;;;;;;;17.30;6.90;;;31.40;74.90;;;;;;5014104;28;20475;-90
2023/10/02 11:51:31;;;;;;;16.33;6.50;;;31.50;73.40;;;;;;5013423;28;20460;-90
2023/10/02 11:53:59;;;;;;;18.77;6.97;;;31.50;73.70;;;;;;5014844;28;20459;-90
2023/10/02 11:56:27;;;;;;;19.30;7.20;;;31.70;72.20;;;;;;5014848;28;20460;-90
2023/10/02 11:58:56;;;;;;;19.13;7.23;;;31.50;74.50;;;;;;5013849;28;20530;-90
2023/10/02 12:01:24;;;;;;;19.20;7.33;;;31.40;73.90;;;;;;5013610;28;20491;-90
2023/10/02 12:03:51;;;;;;;19.53;7.20;;;31.50;74.90;;;;;;5014249;28;20463;-90
2023/10/02 12:06:21;;;;;;;20.10;7.80;;;31.70;75.00;;;;;;5013809;28;21049;-91
2023/10/02 12:08:50;;;;;;;24.20;8.07;;;31.90;72.80;;;;;;5013875;28;20506;-90
2023/10/02 12:11:17;;;;;;;19.10;7.70;;;32.10;73.00;;;;;;5014761;28;20460;-90
2023/10/02 12:13:44;;;;;;;23.80;7.40;;;32.30;70.50;;;;;;5015955;28;20471;-90
2023/10/02 12:16:12;;;;;;;22.67;7.40;;;32.20;70.70;;;;;;5016558;28;20550;-90
2023/10/02 12:18:41;;;;;;;19.07;7.33;;;32.40;73.20;;;;;;5016519;28;20480;-90
2023/10/02 12:21:09;;;;;;;20.50;7.57;;;32.50;70.90;;;;;;5015829;28;20963;-91
2023/10/02 12:23:43;;;;;;;22.27;7.87;;;32.60;71.10;;;;;;5015228;28;20501;-90
2023/10/02 12:26:13;;;;;;;19.53;7.97;;;32.70;71.20;;;;;;5015448;28;20495;-90
2023/10/02 12:28:40;;;;;;;19.97;8.60;;;32.90;69.60;;;;;;5015385;28;21054;-90
2023/10/02 12:31:09;;;;;;;21.10;8.10;;;32.90;72.10;;;;;;5016125;28;20459;-90
2023/10/02 12:33:38;;;;;;;19.77;7.20;;;32.90;71.60;;;;;;5015737;28;20463;-90
2023/10/02 12:36:15;;;;;;;22.80;7.90;;;32.90;70.70;;;;;;5015696;28;20456;-90
2023/10/02 12:38:46;;;;;;;22.13;8.97;;;32.90;69.80;;;;;;5016017;28;20490;-90
2023/10/02 12:41:16;;;;;;;22.20;8.53;;;33.20;70.00;;;;;;5015142;28;20494;-90
2023/10/02 12:43:45;;;;;;;19.87;7.87;;;33.40;69.50;;;;;;5015806;28;20873;-90
2023/10/02 12:46:14;;;;;;;21.83;7.87;;;33.60;69.80;;;;;;5015293;28;20570;-90
2023/10/02 12:48:43;;;;;;;22.97;8.37;;;33.20;69.40;;;;;;5015699;28;20472;-90
2023/10/02 12:51:10;;;;;;;21.23;8.10;;;33.40;70.30;;;;;;5014732;28;20517;-91
2023/10/02 12:53:38;;;;;;;19.67;8.73;;;33.70;71.40;;;;;;5017414;28;20463;-90
2023/10/02 12:56:15;;;;;;;17.93;7.27;;;33.90;71.30;;;;;;5016141;28;20467;-90
2023/10/02 12:58:42;;;;;;;17.87;7.20;;;34.10;71.80;;;;;;5014475;28;20780;-91
2023/10/02 13:01:13;;;;;;;22.97;7.77;;;34.40;69.50;;;;;;5014429;28;20913;-90
2023/10/02 13:03:42;;;;;;;19.57;7.47;;;34.50;69.20;;;;;;5014644;28;20831;-90
2023/10/02 13:06:12;;;;;;;21.20;8.23;;;34.50;70.30;;;;;;5014062;28;20479;-90
2023/10/02 13:08:40;;;;;;;20.40;8.03;;;34.10;68.70;;;;;;5014850;28;20499;-90
2023/10/02 13:11:13;;;;;;;19.73;8.57;;;34.00;69.10;;;;;;5014390;28;20452;-90
2023/10/02 13:13:44;;;;;;;22.30;8.30;;;34.30;69.00;;;;;;5014309;28;20463;-91
2023/10/02 13:16:13;;;;;;;20.03;7.47;;;34.60;69.00;;;;;;5013789;28;20543;-90
2023/10/02 13:18:43;;;;;;;19.27;7.57;;;34.70;68.70;;;;;;5014713;28;20484;-91
2023/10/02 13:21:13;;;;;;;19.77;8.30;;;34.90;69.70;;;;;;5016608;28;20799;-93
2023/10/02 13:23:43;;;;;;;23.97;8.00;;;35.10;68.80;;;;;;5015368;28;20474;-92
2023/10/02 13:26:18;;;;;;;24.00;9.20;;;35.20;68.00;;;;;;5020665;28;20530;-92
2023/10/02 13:28:52;;;;;;;22.97;7.90;;;35.00;66.50;;;;;;5020581;28;20854;-92
2023/10/02 13:31:24;;;;;;;23.23;9.10;;;34.90;67.00;;;;;;5020564;28;20521;-92
2023/10/02 13:34:00;;;;;;;21.70;8.10;;;34.90;66.50;;;;;;5020553;28;21022;-93
2023/10/02 13:36:40;;;;;;;23.70;8.87;;;34.90;66.30;;;;;;5020263;28;20866;-93
2023/10/02 13:39:25;;;;;;;21.73;8.90;;;35.00;65.40;;;;;;5019697;28;20479;-93
2023/10/02 13:42:22;;;;;;;21.57;8.70;;;34.90;67.70;;;;;;5020921;28;20463;-93
2023/10/02 13:44:53;;;;;;;22.10;8.67;;;34.90;68.60;;;;;;5011156;28;20463;-92
2023/10/02 13:47:39;;;;;;;22.50;8.80;;;35.20;67.90;;;;;;5019251;28;20852;-92
2023/10/02 13:50:13;;;;;;;21.67;7.93;;;35.30;68.80;;;;;;5018315;28;20465;-93
2023/10/02 13:52:57;;;;;;;24.57;8.07;;;35.30;65.60;;;;;;5019620;28;20466;-92
2023/10/02 13:55:27;;;;;;;23.53;8.53;;;35.40;69.60;;;;;;5012649;28;20483;-92
2023/10/02 13:57:56;;;;;;;23.17;8.90;;;35.50;68.80;;;;;;5019497;28;20479;-92
2023/10/02 14:00:27;;;;;;;22.10;9.37;;;35.70;68.90;;;;;;5019714;28;20460;-92
2023/10/02 14:02:55;;;;;;;23.77;8.60;;;35.60;69.30;;;;;;5018056;28;20482;-92